Time;durP1;ratioP1;P1;durP2;ratioP2;P2;SDS_P1;SDS_P2;PMS_P1;PMS_P2;Temp;Humidity;BMP_temperature;BMP_pressure;BME280_temperature;BME280_humidity;BME280_pressure;Samples;Min_cycle;Max_cycle;Signal;HPM_P1;HPM_P2
2023/03/30 00:00:17;;;;;;;8.02;2.92;;;2.00;99.90;;;;;;5032134;28;20040;-76
2023/03/30 00:02:48;;;;;;;7.07;3.33;;;1.90;99.90;;;;;;5014176;28;20022;-76
2023/03/30 00:05:14;;;;;;;8.23;4.18;;;2.10;99.90;;;;;;5013761;28;20048;-76
2023/03/30 00:07:41;;;;;;;8.70;3.40;;;2.00;99.90;;;;;;5013731;28;20056;-76
2023/03/30 00:10:09;;;;;;;7.85;3.80;;;2.10;99.90;;;;;;5014195;28;20027;-76
2023/03/30 00:12:35;;;;;;;9.27;3.55;;;2.10;99.90;;;;;;5031634;28;20030;-76
2023/03/30 00:15:01;;;;;;;7.70;3.22;;;2.20;99.90;;;;;;5031600;28;20025;-76
2023/03/30 00:17:27;;;;;;;4.40;3.03;;;2.20;99.90;;;;;;5013880;28;20025;-76
2023/03/30 00:19:52;;;;;;;4.55;3.38;;;2.30;99.90;;;;;;5013953;28;20057;-76
2023/03/30 00:22:18;;;;;;;8.18;4.03;;;2.40;99.90;;;;;;5014097;28;20083;-76
2023/03/30 00:24:44;;;;;;;6.20;3.40;;;2.40;99.90;;;;;;5034407;28;20053;-76
2023/03/30 00:27:09;;;;;;;8.23;3.20;;;2.30;99.90;;;;;;5021277;28;20117;-77
2023/03/30 00:29:35;;;;;;;7.50;3.63;;;2.30;99.90;;;;;;5020908;28;20034;-76
2023/03/30 00:32:01;;;;;;;6.13;3.65;;;2.30;99.90;;;;;;5039811;28;20029;-76
2023/03/30 00:34:26;;;;;;;7.55;3.65;;;2.40;99.90;;;;;;5035150;28;20025;-76
2023/03/30 00:36:52;;;;;;;6.15;3.17;;;2.40;99.90;;;;;;5013971;28;20151;-75
2023/03/30 00:39:21;;;;;;;6.43;3.40;;;2.50;99.90;;;;;;5031939;28;20063;-77
2023/03/30 00:41:48;;;;;;;14.85;3.58;;;2.50;99.90;;;;;;5034432;28;20018;-76
2023/03/30 00:44:51;;;;;;;7.15;3.60;;;2.40;99.90;;;;;;5017233;28;20104;-76
2023/03/30 00:47:17;;;;;;;7.22;3.90;;;2.40;99.90;;;;;;5017780;28;20486;-76
2023/03/30 00:49:43;;;;;;;8.50;3.55;;;2.50;99.90;;;;;;5013793;28;20099;-76
2023/03/30 00:52:10;;;;;;;9.02;4.05;;;2.50;99.90;;;;;;5031421;28;20025;-76
2023/03/30 00:54:37;;;;;;;10.73;4.18;;;2.50;99.90;;;;;;5030978;28;20456;-76
2023/03/30 00:57:04;;;;;;;7.00;3.67;;;2.50;99.90;;;;;;5031322;28;20021;-76
2023/03/30 00:59:30;;;;;;;13.13;4.22;;;2.50;99.90;;;;;;5030921;28;20420;-76
2023/03/30 01:01:55;;;;;;;6.88;4.18;;;2.50;99.90;;;;;;5013734;28;20112;-76
2023/03/30 01:04:21;;;;;;;6.22;3.40;;;2.60;99.90;;;;;;5031265;28;20075;-76
2023/03/30 01:06:48;;;;;;;8.52;4.07;;;2.60;99.90;;;;;;5031118;28;20034;-75
2023/03/30 01:09:15;;;;;;;9.13;4.18;;;2.60;99.90;;;;;;5032068;28;20079;-76
2023/03/30 01:11:42;;;;;;;6.68;3.40;;;2.60;99.90;;;;;;5017165;28;20076;-76
2023/03/30 01:14:10;;;;;;;9.65;4.05;;;2.60;99.90;;;;;;5016762;28;20056;-76
2023/03/30 01:16:49;;;;;;;9.23;4.40;;;2.70;99.90;;;;;;5034458;28;20017;-76
2023/03/30 01:19:42;;;;;;;7.28;4.13;;;2.70;99.90;;;;;;5016633;28;20072;-76
2023/03/30 01:22:40;;;;;;;8.35;3.92;;;2.80;99.90;;;;;;5034768;28;20018;-76
2023/03/30 01:25:37;;;;;;;5.18;3.13;;;2.70;99.90;;;;;;5016480;28;20033;-76
2023/03/30 01:28:27;;;;;;;6.32;3.58;;;2.70;99.90;;;;;;5034169;28;20075;-76
2023/03/30 01:31:18;;;;;;;10.88;3.95;;;2.80;99.90;;;;;;5016690;28;20072;-76
2023/03/30 01:34:28;;;;;;;7.28;3.65;;;2.80;99.90;;;;;;4979975;28;20029;-75
2023/03/30 01:37:37;;;;;;;9.90;3.30;;;2.90;99.90;;;;;;5016461;28;20025;-76
2023/03/30 01:40:05;;;;;;;8.07;3.92;;;2.90;99.90;;;;;;5034328;28;20100;-76
2023/03/30 01:42:40;;;;;;;6.28;3.25;;;2.80;99.90;;;;;;5016448;28;20120;-76
2023/03/30 01:45:37;;;;;;;10.27;4.78;;;2.80;99.90;;;;;;5033926;28;20029;-76
2023/03/30 01:48:12;;;;;;;7.57;4.03;;;2.80;99.90;;;;;;4999176;28;20045;-76
2023/03/30 01:51:01;;;;;;;8.32;4.22;;;2.70;99.90;;;;;;5034178;28;20375;-76
2023/03/30 01:53:42;;;;;;;9.75;4.45;;;2.80;99.90;;;;;;5034114;28;20063;-76
2023/03/30 01:56:18;;;;;;;14.23;4.57;;;2.70;99.90;;;;;;5016170;28;20029;-75
2023/03/30 01:58:52;;;;;;;6.05;3.75;;;2.80;99.90;;;;;;5015871;28;20038;-76
2023/03/30 02:01:19;;;;;;;5.45;4.10;;;2.80;99.90;;;;;;5033938;28;20056;-76
2023/03/30 02:03:51;;;;;;;10.23;4.15;;;2.80;99.90;;;;;;5033808;28;20033;-76
2023/03/30 02:06:38;;;;;;;7.03;3.67;;;2.90;99.90;;;;;;5015749;28;20486;-76
2023/03/30 02:09:08;;;;;;;8.57;3.88;;;2.80;99.90;;;;;;5015789;28;20524;-76
2023/03/30 02:11:37;;;;;;;9.10;4.38;;;2.90;99.90;;;;;;5015968;28;20030;-76
2023/03/30 02:14:04;;;;;;;9.20;4.30;;;2.90;99.90;;;;;;5033699;28;20420;-76
2023/03/30 02:16:39;;;;;;;9.02;3.95;;;2.90;99.90;;;;;;5015312;28;20025;-76
2023/03/30 02:19:05;;;;;;;10.93;3.58;;;2.90;99.90;;;;;;5033295;28;20028;-76
2023/03/30 02:21:31;;;;;;;5.85;3.65;;;3.00;99.90;;;;;;5014727;28;20030;-76
2023/03/30 02:23:59;;;;;;;7.22;4.20;;;3.10;99.90;;;;;;5033410;28;20032;-76
2023/03/30 02:26:26;;;;;;;6.85;3.47;;;3.00;99.90;;;;;;5033092;28;20566;-76
2023/03/30 02:28:52;;;;;;;8.05;4.15;;;3.10;99.90;;;;;;5015340;28;20520;-76
2023/03/30 02:31:18;;;;;;;7.30;3.58;;;3.10;99.90;;;;;;5033209;28;20097;-76
2023/03/30 02:34:13;;;;;;;6.80;3.45;;;3.10;99.90;;;;;;5033229;28;20049;-76
2023/03/30 02:37:01;;;;;;;7.40;4.28;;;3.20;99.90;;;;;;5032938;28;20055;-76
2023/03/30 02:39:52;;;;;;;7.63;4.28;;;3.10;99.90;;;;;;5014960;28;20383;-75
2023/03/30 02:42:27;;;;;;;9.15;4.20;;;3.20;99.90;;;;;;5015513;28;20029;-76
2023/03/30 02:45:37;;;;;;;7.13;3.13;;;3.20;99.90;;;;;;5032709;28;20032;-76
2023/03/30 02:48:21;;;;;;;7.25;3.58;;;3.20;99.90;;;;;;5010910;28;20123;-76
2023/03/30 02:51:05;;;;;;;6.00;3.67;;;3.30;99.90;;;;;;5015332;28;20065;-76
2023/03/30 02:53:34;;;;;;;12.55;3.53;;;3.20;99.90;;;;;;5013691;28;20022;-76
2023/03/30 02:56:25;;;;;;;10.73;3.70;;;3.20;99.90;;;;;;5103177;22;20040;-77
2023/03/30 02:59:03;;;;;;;9.70;4.53;;;3.20;99.90;;;;;;5050234;28;20123;-77
2023/03/30 03:01:47;;;;;;;8.07;4.53;;;3.20;99.90;;;;;;5077308;28;20028;-76
2023/03/30 03:04:14;;;;;;;6.78;3.70;;;3.20;99.90;;;;;;5095001;28;20481;-76
2023/03/30 03:06:41;;;;;;;7.10;3.42;;;3.20;99.90;;;;;;5077276;28;20099;-78
2023/03/30 03:09:07;;;;;;;6.50;4.18;;;3.10;99.90;;;;;;5094839;28;20081;-77
2023/03/30 03:11:33;;;;;;;8.55;4.03;;;3.10;99.90;;;;;;5076949;28;20031;-78
2023/03/30 03:13:59;;;;;;;6.13;3.95;;;3.20;99.90;;;;;;5095208;28;20024;-77
2023/03/30 03:16:25;;;;;;;5.63;3.88;;;3.30;99.90;;;;;;5076932;28;20389;-77
2023/03/30 03:18:51;;;;;;;8.68;3.80;;;3.20;99.90;;;;;;5094078;28;20042;-77
2023/03/30 03:21:17;;;;;;;4.72;3.45;;;4.10;99.90;;;;;;5076845;28;20096;-77
2023/03/30 03:23:43;;;;;;;8.55;3.58;;;4.00;99.90;;;;;;5077232;28;20481;-77
2023/03/30 03:26:10;;;;;;;5.63;3.13;;;3.90;99.90;;;;;;5076718;28;20028;-77
2023/03/30 03:28:36;;;;;;;8.98;3.95;;;3.70;99.90;;;;;;5076375;28;20039;-78
2023/03/30 03:31:02;;;;;;;6.95;3.58;;;3.60;99.90;;;;;;5095365;28;20028;-77
2023/03/30 03:33:30;;;;;;;6.68;3.75;;;3.50;99.90;;;;;;5085815;28;20054;-78
2023/03/30 03:35:57;;;;;;;9.48;3.30;;;3.50;99.90;;;;;;5101719;28;20020;-78
2023/03/30 03:38:23;;;;;;;7.15;3.72;;;3.50;99.90;;;;;;5095258;28;20020;-77
2023/03/30 03:40:54;;;;;;;8.75;3.50;;;3.50;99.90;;;;;;5094477;28;20024;-78
2023/03/30 03:43:20;;;;;;;6.43;3.67;;;3.50;99.90;;;;;;5076524;28;20035;-78
2023/03/30 03:45:47;;;;;;;6.35;3.63;;;3.40;99.90;;;;;;5092899;28;20468;-78
2023/03/30 03:48:18;;;;;;;6.32;3.47;;;4.90;99.90;;;;;;5076412;28;20445;-78
2023/03/30 03:50:45;;;;;;;9.95;3.88;;;4.60;99.90;;;;;;5094960;28;20030;-77
2023/03/30 03:53:11;;;;;;;4.95;3.55;;;4.30;99.90;;;;;;5077140;28;20384;-77
2023/03/30 03:55:37;;;;;;;8.75;3.42;;;4.20;99.90;;;;;;5094627;28;20032;-77
2023/03/30 03:58:04;;;;;;;6.13;3.88;;;4.00;99.90;;;;;;5095075;28;20410;-78
2023/03/30 04:00:30;;;;;;;7.97;4.07;;;4.00;99.90;;;;;;5095035;28;20376;-78
2023/03/30 04:02:56;;;;;;;6.20;3.80;;;3.90;99.90;;;;;;5076501;28;20404;-77
2023/03/30 04:05:23;;;;;;;6.10;3.90;;;3.80;99.90;;;;;;5075942;28;20023;-78
2023/03/30 04:07:48;;;;;;;5.25;3.33;;;3.80;99.90;;;;;;5075083;28;20032;-77
2023/03/30 04:10:14;;;;;;;6.75;3.88;;;3.70;99.90;;;;;;5094246;28;20023;-77
2023/03/30 04:12:40;;;;;;;7.88;4.28;;;3.70;99.90;;;;;;5094517;28;20030;-77
2023/03/30 04:15:06;;;;;;;6.68;3.53;;;3.60;99.90;;;;;;5094267;28;20031;-77
2023/03/30 04:17:33;;;;;;;5.82;3.70;;;3.50;99.90;;;;;;5093150;28;20020;-77
2023/03/30 04:20:04;;;;;;;6.45;3.95;;;4.60;99.90;;;;;;5075340;28;20024;-78
2023/03/30 04:22:40;;;;;;;3.63;3.10;;;4.30;99.90;;;;;;5094655;28;20020;-78
2023/03/30 04:25:10;;;;;;;5.95;2.85;;;4.00;99.90;;;;;;5094605;28;20024;-78
2023/03/30 04:27:37;;;;;;;6.93;3.00;;;3.80;99.90;;;;;;5094764;28;20024;-79
2023/03/30 04:30:04;;;;;;;7.20;3.38;;;3.60;99.90;;;;;;5076493;28;20055;-78
2023/03/30 04:32:33;;;;;;;5.75;3.38;;;3.40;99.90;;;;;;5075764;28;20024;-77
2023/03/30 04:35:02;;;;;;;6.97;4.03;;;3.40;99.90;;;;;;5094520;28;20028;-78
2023/03/30 04:37:30;;;;;;;6.75;3.50;;;3.30;99.90;;;;;;5094212;28;20062;-78
2023/03/30 04:39:57;;;;;;;9.95;4.75;;;3.30;99.90;;;;;;5094758;28;20024;-77
2023/03/30 04:42:29;;;;;;;9.98;4.18;;;3.20;99.90;;;;;;5076183;28;20028;-78
2023/03/30 04:44:58;;;;;;;6.15;4.25;;;3.20;99.90;;;;;;5096569;28;20028;-77
2023/03/30 04:47:24;;;;;;;8.32;4.47;;;3.20;99.90;;;;;;5098042;28;20024;-78
2023/03/30 04:49:50;;;;;;;7.18;3.47;;;3.20;99.90;;;;;;5098012;28;20035;-76
2023/03/30 04:52:16;;;;;;;6.05;3.92;;;3.30;99.90;;;;;;5080107;28;20028;-77
2023/03/30 04:54:42;;;;;;;9.40;5.05;;;3.20;99.90;;;;;;5097497;28;20051;-78
2023/03/30 04:57:07;;;;;;;12.10;4.43;;;3.20;99.90;;;;;;5093050;28;20095;-78
2023/03/30 04:59:33;;;;;;;10.35;3.92;;;3.10;99.90;;;;;;5079473;28;20031;-78
2023/03/30 05:01:58;;;;;;;8.15;3.95;;;3.20;99.90;;;;;;5098268;28;20028;-78
2023/03/30 05:04:24;;;;;;;8.65;4.28;;;3.40;99.90;;;;;;5097817;28;20485;-78
2023/03/30 05:06:50;;;;;;;7.57;4.80;;;3.30;99.90;;;;;;5097010;28;20024;-78
2023/03/30 05:09:16;;;;;;;7.60;4.90;;;3.30;99.90;;;;;;5079697;28;20020;-78
2023/03/30 05:11:42;;;;;;;8.25;5.00;;;3.40;99.90;;;;;;5098513;28;20491;-78
2023/03/30 05:14:07;;;;;;;7.32;3.70;;;3.40;99.90;;;;;;5080294;28;20020;-79
2023/03/30 05:16:33;;;;;;;10.60;4.63;;;3.40;99.90;;;;;;5098906;28;20073;-77
2023/03/30 05:18:58;;;;;;;6.85;3.63;;;3.50;99.90;;;;;;5099457;28;20054;-79
2023/03/30 05:21:24;;;;;;;5.53;3.88;;;3.60;99.90;;;;;;5099172;28;20265;-78
2023/03/30 05:23:50;;;;;;;6.50;3.65;;;3.60;99.90;;;;;;5080839;28;20484;-80
2023/03/30 05:26:15;;;;;;;5.63;3.55;;;3.70;99.90;;;;;;5099520;28;20024;-80
2023/03/30 05:28:41;;;;;;;9.90;4.18;;;3.80;99.90;;;;;;5098901;28;20020;-78
2023/03/30 05:31:07;;;;;;;11.43;3.97;;;3.90;99.90;;;;;;5081352;28;20073;-79
2023/03/30 05:33:33;;;;;;;9.45;4.43;;;3.90;99.90;;;;;;5099770;28;20095;-79
2023/03/30 05:35:59;;;;;;;6.82;4.05;;;3.90;99.90;;;;;;5099143;28;20031;-78
2023/03/30 05:38:25;;;;;;;7.25;3.35;;;4.00;99.90;;;;;;5080714;28;20043;-79
2023/03/30 05:40:52;;;;;;;6.95;3.63;;;3.90;99.90;;;;;;5099740;28;20024;-79
2023/03/30 05:43:18;;;;;;;7.20;4.47;;;4.00;99.90;;;;;;5081368;28;20028;-77
2023/03/30 05:45:44;;;;;;;5.25;3.65;;;4.00;99.90;;;;;;5098599;28;20021;-78
2023/03/30 05:48:10;;;;;;;5.55;3.90;;;4.10;99.90;;;;;;5080232;28;20042;-79
2023/03/30 05:50:36;;;;;;;8.00;3.58;;;4.20;99.90;;;;;;5098827;28;20031;-79
2023/03/30 05:53:01;;;;;;;8.95;4.50;;;4.20;99.90;;;;;;5099512;28;20092;-78
2023/03/30 05:55:27;;;;;;;5.97;3.83;;;4.30;99.90;;;;;;5098488;28;20067;-80
2023/03/30 05:57:53;;;;;;;6.85;3.70;;;4.30;99.90;;;;;;5080342;28;20062;-79
2023/03/30 06:00:20;;;;;;;8.85;4.80;;;4.50;99.90;;;;;;5098749;28;20024;-79
2023/03/30 06:02:46;;;;;;;9.35;3.45;;;4.60;99.90;;;;;;5081307;28;20024;-79
2023/03/30 06:05:12;;;;;;;7.93;3.65;;;4.60;99.90;;;;;;5097517;28;20050;-80
2023/03/30 06:07:38;;;;;;;5.70;3.55;;;4.60;99.90;;;;;;5099257;28;20046;-78
2023/03/30 06:10:05;;;;;;;3.70;3.20;;;4.70;99.90;;;;;;5080767;28;20400;-79
2023/03/30 06:12:31;;;;;;;6.03;3.40;;;4.90;99.90;;;;;;5098760;28;20028;-79
2023/03/30 06:14:57;;;;;;;9.13;3.60;;;5.10;99.90;;;;;;5097893;28;20016;-79
2023/03/30 06:17:23;;;;;;;9.48;3.92;;;5.30;99.90;;;;;;5100597;28;20059;-76
2023/03/30 06:19:49;;;;;;;6.00;3.33;;;5.40;99.90;;;;;;5112690;28;20028;-76
2023/03/30 06:22:14;;;;;;;5.05;3.47;;;5.50;99.90;;;;;;5108030;28;20020;-76
2023/03/30 06:24:40;;;;;;;4.03;3.22;;;5.60;99.90;;;;;;5094834;28;20464;-77
2023/03/30 06:27:06;;;;;;;4.18;3.50;;;5.50;99.90;;;;;;5095029;28;20029;-77
2023/03/30 06:29:31;;;;;;;6.50;3.97;;;5.60;99.90;;;;;;5076255;28;20020;-76
2023/03/30 06:31:57;;;;;;;6.55;3.75;;;5.60;99.90;;;;;;5076109;28;20028;-76
2023/03/30 06:34:23;;;;;;;6.85;3.40;;;5.70;99.90;;;;;;5095043;28;20039;-77
2023/03/30 06:36:49;;;;;;;13.98;3.90;;;5.70;99.90;;;;;;5076511;28;20024;-77
2023/03/30 06:39:16;;;;;;;7.47;4.50;;;5.70;99.90;;;;;;5093637;28;20020;-76
2023/03/30 06:41:41;;;;;;;5.82;4.13;;;5.60;99.90;;;;;;5076287;28;20097;-76
2023/03/30 06:44:09;;;;;;;8.32;3.53;;;5.60;99.90;;;;;;5093898;28;20024;-76
2023/03/30 06:46:35;;;;;;;23.52;7.03;;;5.90;99.90;;;;;;5093376;28;20484;-77
2023/03/30 06:49:01;;;;;;;16.85;5.97;;;6.80;99.90;;;;;;5075563;28;20031;-76
2023/03/30 06:51:27;;;;;;;12.35;4.93;;;6.60;99.90;;;;;;5075979;28;20121;-77
2023/03/30 06:53:53;;;;;;;11.27;4.35;;;6.30;99.90;;;;;;5093944;28;20462;-77
2023/03/30 06:56:19;;;;;;;9.75;4.90;;;6.20;99.90;;;;;;5073764;28;20032;-77
2023/03/30 06:58:45;;;;;;;11.80;4.90;;;6.20;99.90;;;;;;5093649;28;20023;-77
2023/03/30 07:01:12;;;;;;;8.82;3.92;;;6.20;99.90;;;;;;5075287;28;20024;-77
2023/03/30 07:03:40;;;;;;;5.45;3.50;;;6.20;99.90;;;;;;5094004;28;20043;-77
2023/03/30 07:06:06;;;;;;;7.20;3.42;;;6.20;99.90;;;;;;5074588;28;20028;-76
2023/03/30 07:08:33;;;;;;;8.98;3.72;;;6.30;99.90;;;;;;5093394;28;20058;-78
2023/03/30 07:10:58;;;;;;;6.22;3.85;;;6.40;99.90;;;;;;5075903;28;20470;-77
2023/03/30 07:13:25;;;;;;;7.68;3.55;;;6.70;99.90;;;;;;5094314;28;20055;-77
2023/03/30 07:15:51;;;;;;;7.20;3.08;;;6.70;99.90;;;;;;5093761;28;20020;-77
2023/03/30 07:18:17;;;;;;;5.43;3.00;;;6.70;99.90;;;;;;5093996;28;20476;-77
2023/03/30 07:20:44;;;;;;;5.00;3.28;;;6.70;99.90;;;;;;5076570;28;20088;-77
2023/03/30 07:23:10;;;;;;;5.60;3.30;;;6.70;99.90;;;;;;5075803;28;20484;-77
2023/03/30 07:25:36;;;;;;;7.22;4.13;;;6.80;99.90;;;;;;5076468;28;20020;-77
2023/03/30 07:28:05;;;;;;;9.60;3.95;;;7.00;99.90;;;;;;5076344;28;20024;-76
2023/03/30 07:30:34;;;;;;;8.57;4.47;;;7.10;99.90;;;;;;5094159;28;20430;-77
2023/03/30 07:33:00;;;;;;;7.18;3.65;;;7.20;99.90;;;;;;5094714;28;20052;-76
2023/03/30 07:35:26;;;;;;;6.57;3.80;;;7.10;99.90;;;;;;5076403;28;20032;-76
2023/03/30 07:37:52;;;;;;;6.63;3.92;;;7.30;99.90;;;;;;5074356;28;20027;-77
2023/03/30 07:40:18;;;;;;;5.53;3.42;;;7.40;99.90;;;;;;5092734;28;20031;-76
2023/03/30 07:42:44;;;;;;;3.92;3.08;;;7.60;99.90;;;;;;5092480;28;20027;-77
2023/03/30 07:45:10;;;;;;;6.53;3.40;;;7.70;99.90;;;;;;5092507;28;20454;-76
2023/03/30 07:47:36;;;;;;;4.57;2.97;;;7.90;99.90;;;;;;5093042;28;20081;-75
2023/03/30 07:50:02;;;;;;;7.28;3.47;;;8.00;99.90;;;;;;5093382;28;20103;-77
2023/03/30 07:52:28;;;;;;;6.25;3.78;;;8.00;99.90;;;;;;5093301;28;20020;-77
2023/03/30 07:54:55;;;;;;;7.47;3.40;;;8.10;99.90;;;;;;5092212;28;20661;-76
2023/03/30 07:57:21;;;;;;;5.13;3.90;;;8.20;99.90;;;;;;5076299;28;20035;-77
2023/03/30 07:59:47;;;;;;;4.80;3.05;;;8.40;99.90;;;;;;5096259;28;20024;-78
2023/03/30 08:02:13;;;;;;;6.22;3.00;;;8.60;99.90;;;;;;5075248;28;20028;-73
2023/03/30 08:04:43;;;;;;;5.45;2.85;;;9.00;99.90;;;;;;5092211;28;20114;-75
2023/03/30 08:07:10;;;;;;;3.60;2.83;;;9.40;99.90;;;;;;5093733;28;20020;-75
2023/03/30 08:09:36;;;;;;;5.72;2.95;;;9.60;99.10;;;;;;5075664;28;20039;-74
2023/03/30 08:12:02;;;;;;;10.55;3.47;;;9.90;97.90;;;;;;5091845;28;20051;-75
2023/03/30 08:14:28;;;;;;;5.43;2.85;;;10.00;97.30;;;;;;5073544;28;20024;-75
2023/03/30 08:16:55;;;;;;;4.40;2.50;;;10.10;97.30;;;;;;5090522;28;20024;-75
2023/03/30 08:19:23;;;;;;;4.70;3.40;;;10.20;95.90;;;;;;5074966;28;20024;-76
2023/03/30 08:21:49;;;;;;;9.55;2.78;;;10.20;95.60;;;;;;5092298;28;20547;-75
2023/03/30 08:24:16;;;;;;;7.60;2.67;;;10.00;94.80;;;;;;5069441;28;20024;-75
2023/03/30 08:26:42;;;;;;;5.22;2.95;;;10.10;95.00;;;;;;5095442;28;20024;-75
2023/03/30 08:29:08;;;;;;;5.55;2.67;;;10.20;94.90;;;;;;5095200;28;20027;-75
2023/03/30 08:31:36;;;;;;;6.70;3.90;;;10.20;95.00;;;;;;5095594;28;20024;-75
2023/03/30 08:34:03;;;;;;;5.47;3.08;;;10.20;95.50;;;;;;5077554;28;20513;-75
2023/03/30 08:36:29;;;;;;;4.57;3.08;;;10.30;95.50;;;;;;5077160;28;20099;-75
2023/03/30 08:38:55;;;;;;;4.28;3.17;;;10.40;95.20;;;;;;5095349;28;20017;-75
2023/03/30 08:41:50;;;;;;;9.60;3.47;;;10.50;94.60;;;;;;5095208;28;20498;-75
2023/03/30 08:44:27;;;;;;;7.35;3.70;;;10.50;94.50;;;;;;5095447;28;20047;-75
2023/03/30 08:46:53;;;;;;;4.80;3.42;;;10.70;94.50;;;;;;5095356;28;20028;-75
2023/03/30 08:49:20;;;;;;;3.88;2.65;;;10.80;94.90;;;;;;5094963;28;20032;-75
2023/03/30 08:51:50;;;;;;;4.72;2.67;;;10.80;94.70;;;;;;5095350;28;20392;-75
2023/03/30 08:54:18;;;;;;;5.10;2.67;;;10.90;94.30;;;;;;5095082;28;20020;-75
2023/03/30 08:56:52;;;;;;;4.78;2.70;;;11.30;94.20;;;;;;5084489;22;20045;-78
2023/03/30 08:59:39;;;;;;;3.22;2.20;;;11.60;93.00;;;;;;5060965;28;20020;-78
2023/03/30 09:02:18;;;;;;;8.55;2.40;;;11.90;92.00;;;;;;5062834;28;20052;-77
2023/03/30 09:05:00;;;;;;;6.88;2.40;;;12.10;90.70;;;;;;5043989;28;20052;-77
2023/03/30 09:07:42;;;;;;;6.10;2.40;;;12.30;90.80;;;;;;5044374;28;20025;-77
2023/03/30 09:10:13;;;;;;;6.60;2.25;;;12.50;91.70;;;;;;5043035;28;20052;-79
2023/03/30 09:12:56;;;;;;;3.25;1.83;;;12.90;91.70;;;;;;5042890;28;20566;-76
2023/03/30 09:15:27;;;;;;;6.90;1.98;;;12.80;90.10;;;;;;5043138;28;20025;-78
2023/03/30 09:18:16;;;;;;;6.82;2.10;;;12.80;90.30;;;;;;5060440;28;20535;-80
2023/03/30 09:20:43;;;;;;;3.00;1.88;;;12.90;90.20;;;;;;5061257;28;20021;-78
2023/03/30 09:23:15;;;;;;;2.75;1.90;;;13.00;89.30;;;;;;5042716;28;20027;-75
2023/03/30 09:26:02;;;;;;;3.72;2.42;;;13.00;87.40;;;;;;5042391;28;20021;-77
2023/03/30 09:28:42;;;;;;;3.10;1.70;;;13.10;87.80;;;;;;5060810;28;20051;-76
2023/03/30 09:31:09;;;;;;;2.63;1.80;;;13.40;87.00;;;;;;5059296;28;20029;-76
2023/03/30 09:33:45;;;;;;;10.20;2.63;;;13.50;86.30;;;;;;5058521;28;20017;-77
2023/03/30 09:36:20;;;;;;;5.18;2.25;;;13.60;86.20;;;;;;5040624;28;20448;-79
2023/03/30 09:38:46;;;;;;;5.45;2.92;;;13.70;86.60;;;;;;5059918;28;20049;-77
2023/03/30 09:41:52;;;;;;;3.15;2.10;;;13.70;86.30;;;;;;5059720;28;20401;-77
2023/03/30 09:44:38;;;;;;;2.80;2.13;;;13.80;87.90;;;;;;5055525;28;20052;-77
2023/03/30 09:47:24;;;;;;;5.93;2.10;;;13.70;86.30;;;;;;5040089;28;20060;-77
2023/03/30 09:50:01;;;;;;;2.30;1.48;;;14.00;86.70;;;;;;5058112;28;20033;-77
2023/03/30 09:52:30;;;;;;;6.63;2.15;;;14.40;85.30;;;;;;5059036;28;20029;-76
2023/03/30 09:55:01;;;;;;;3.72;1.63;;;14.50;83.70;;;;;;5058428;28;20131;-77
2023/03/30 09:57:28;;;;;;;2.75;1.70;;;14.50;84.00;;;;;;5058259;28;20063;-79
2023/03/30 09:59:55;;;;;;;3.53;1.95;;;14.50;84.70;;;;;;5059944;28;20143;-79
2023/03/30 10:02:23;;;;;;;4.88;2.13;;;14.40;85.50;;;;;;5058123;28;20512;-76
2023/03/30 10:04:52;;;;;;;2.65;1.73;;;14.30;84.90;;;;;;5058389;28;20184;-76
2023/03/30 10:07:26;;;;;;;3.28;2.28;;;14.50;84.10;;;;;;5059126;28;20035;-77
2023/03/30 10:09:53;;;;;;;3.35;2.17;;;14.70;83.60;;;;;;5042072;28;20059;-79
2023/03/30 10:12:19;;;;;;;3.78;2.25;;;14.70;84.00;;;;;;5041006;28;20040;-79
2023/03/30 10:14:45;;;;;;;7.20;2.25;;;14.60;85.40;;;;;;5059267;28;20025;-78
2023/03/30 10:17:25;;;;;;;3.20;1.98;;;14.60;83.70;;;;;;5041699;28;20036;-79
2023/03/30 10:20:35;;;;;;;2.28;1.63;;;14.50;83.10;;;;;;5039767;28;20393;-77
2023/03/30 10:23:16;;;;;;;2.63;1.85;;;14.80;82.70;;;;;;5058497;28;20021;-76
2023/03/30 10:25:42;;;;;;;2.10;1.85;;;14.70;81.30;;;;;;5040386;28;20116;-76
2023/03/30 10:28:20;;;;;;;5.13;2.22;;;14.70;82.10;;;;;;5040380;28;20025;-79
2023/03/30 10:30:53;;;;;;;3.45;1.90;;;14.80;81.60;;;;;;5040114;28;20025;-79
2023/03/30 10:33:20;;;;;;;3.10;2.10;;;14.80;81.60;;;;;;5041093;28;20032;-80
2023/03/30 10:35:47;;;;;;;5.57;2.10;;;15.00;81.40;;;;;;5038496;28;20689;-80
2023/03/30 10:38:14;;;;;;;2.75;1.60;;;14.80;81.70;;;;;;5056302;28;20021;-79
2023/03/30 10:40:42;;;;;;;3.78;2.00;;;14.80;83.40;;;;;;5040645;28;20092;-79
2023/03/30 10:43:19;;;;;;;4.65;2.17;;;15.00;82.60;;;;;;5038388;28;20108;-80
2023/03/30 10:45:52;;;;;;;5.82;3.35;;;15.20;81.90;;;;;;5042252;28;20024;-77
2023/03/30 10:48:35;;;;;;;60.75;29.52;;;15.50;80.70;;;;;;5057769;28;20037;-78
2023/03/30 10:51:38;;;;;;;17.85;11.73;;;15.80;78.30;;;;;;5055803;28;20017;-78
2023/03/30 10:54:36;;;;;;;8.48;2.55;;;15.80;77.30;;;;;;5057067;28;20025;-79
2023/03/30 10:57:15;;;;;;;5.53;2.03;;;16.10;75.20;;;;;;5027847;28;20037;-77
2023/03/30 11:00:11;;;;;;;3.80;2.15;;;16.30;76.50;;;;;;5039658;28;20082;-78
2023/03/30 11:03:03;;;;;;;2.00;1.60;;;16.30;75.10;;;;;;5039676;28;20048;-76
2023/03/30 11:05:36;;;;;;;7.22;2.90;;;16.50;72.20;;;;;;5059313;28;20025;-78
2023/03/30 11:08:30;;;;;;;3.03;2.08;;;16.50;70.80;;;;;;5059267;28;20029;-77
2023/03/30 11:10:58;;;;;;;2.53;2.03;;;16.60;71.50;;;;;;5036754;28;20029;-79
2023/03/30 11:13:34;;;;;;;2.65;2.00;;;16.30;72.20;;;;;;5040797;28;20054;-77
2023/03/30 11:16:14;;;;;;;2.47;2.08;;;16.20;73.40;;;;;;5041145;28;20040;-79
2023/03/30 11:19:29;;;;;;;2.35;1.67;;;16.20;73.40;;;;;;5056278;28;20036;-78
2023/03/30 11:22:20;;;;;;;4.78;1.77;;;16.30;70.60;;;;;;5030450;28;20041;-78
2023/03/30 11:24:49;;;;;;;3.38;1.90;;;16.10;71.50;;;;;;5036377;28;20071;-79
2023/03/30 11:27:42;;;;;;;3.38;1.88;;;16.10;71.80;;;;;;5037414;28;20123;-79
2023/03/30 11:30:20;;;;;;;3.25;2.45;;;16.00;71.80;;;;;;5047070;28;20676;-76
2023/03/30 11:32:53;;;;;;;4.00;2.47;;;15.80;72.50;;;;;;5055493;28;20091;-79
2023/03/30 11:35:58;;;;;;;2.92;2.60;;;15.60;72.20;;;;;;5037893;28;20037;-77
2023/03/30 11:38:38;;;;;;;3.47;2.72;;;15.60;72.90;;;;;;5033319;28;20033;-78
2023/03/30 11:41:13;;;;;;;4.75;3.47;;;15.60;73.40;;;;;;5055288;28;20027;-79
2023/03/30 11:43:40;;;;;;;9.65;6.00;;;15.60;73.90;;;;;;5053856;28;20040;-80
2023/03/30 11:46:09;;;;;;;5.95;2.85;;;15.70;72.00;;;;;;5036826;28;20021;-79
2023/03/30 11:49:08;;;;;;;5.13;3.45;;;15.50;71.30;;;;;;5055101;28;20452;-78
2023/03/30 11:52:06;;;;;;;8.88;4.45;;;15.60;73.20;;;;;;5036374;28;20021;-79
2023/03/30 11:55:15;;;;;;;7.75;3.55;;;15.50;74.00;;;;;;5054607;28;20021;-78
2023/03/30 11:57:55;;;;;;;4.40;2.53;;;15.60;73.90;;;;;;5054380;28;20051;-77
2023/03/30 12:00:37;;;;;;;8.20;2.78;;;15.60;72.60;;;;;;5037997;28;20027;-76
2023/03/30 12:03:41;;;;;;;3.10;2.55;;;15.60;72.50;;;;;;5037021;28;20031;-78
2023/03/30 12:06:26;;;;;;;4.57;3.63;;;15.60;74.20;;;;;;5037953;28;20469;-78
2023/03/30 12:09:20;;;;;;;4.55;3.35;;;15.60;75.70;;;;;;5037215;28;20025;-77
2023/03/30 12:12:04;;;;;;;6.53;4.43;;;15.40;78.00;;;;;;5055111;28;20025;-78
2023/03/30 12:14:55;;;;;;;9.93;3.20;;;15.30;80.40;;;;;;5036845;28;20024;-78
2023/03/30 12:17:33;;;;;;;5.13;3.08;;;15.30;82.30;;;;;;5043776;28;20086;-77
2023/03/30 12:20:24;;;;;;;5.97;4.25;;;15.10;84.10;;;;;;5052466;28;20110;-77
2023/03/30 12:23:17;;;;;;;5.07;3.42;;;14.90;84.80;;;;;;5035829;28;20124;-76
2023/03/30 12:26:06;;;;;;;4.75;2.70;;;14.90;87.70;;;;;;5054323;28;20029;-79
2023/03/30 12:28:57;;;;;;;4.57;2.90;;;14.90;88.90;;;;;;5055324;28;20053;-77
2023/03/30 12:32:02;;;;;;;4.32;3.22;;;14.90;90.50;;;;;;5055363;28;20420;-76
2023/03/30 12:34:34;;;;;;;3.90;3.00;;;14.90;91.80;;;;;;5036362;28;20037;-75
2023/03/30 12:37:05;;;;;;;5.03;4.13;;;14.90;91.80;;;;;;5035820;28;20055;-78
2023/03/30 12:39:43;;;;;;;4.82;2.58;;;14.90;92.50;;;;;;5055614;28;20052;-79
2023/03/30 12:42:33;;;;;;;2.42;2.03;;;14.90;91.60;;;;;;5037324;28;20021;-78
2023/03/30 12:45:19;;;;;;;5.03;2.95;;;15.00;91.20;;;;;;5036452;28;20032;-76
2023/03/30 12:48:16;;;;;;;5.03;2.15;;;15.20;90.00;;;;;;5052757;28;20028;-77
2023/03/30 12:51:06;;;;;;;4.18;2.40;;;15.40;89.90;;;;;;5036991;28;20029;-79
2023/03/30 12:53:52;;;;;;;2.55;2.08;;;15.50;90.50;;;;;;5053643;28;20052;-80
2023/03/30 12:56:30;;;;;;;5.57;3.00;;;15.80;87.20;;;;;;5036139;28;20048;-80
2023/03/30 12:58:55;;;;;;;4.28;1.98;;;15.90;83.00;;;;;;5053989;28;20104;-79
2023/03/30 13:01:24;;;;;;;4.03;2.47;;;16.00;80.60;;;;;;5054674;28;20056;-79
2023/03/30 13:03:57;;;;;;;3.90;2.78;;;16.10;80.40;;;;;;5036548;28;20017;-79
2023/03/30 13:06:33;;;;;;;3.00;2.03;;;16.30;79.10;;;;;;5038819;28;20025;-78
2023/03/30 13:09:25;;;;;;;4.28;2.35;;;16.30;76.80;;;;;;5056974;28;20029;-76
2023/03/30 13:11:53;;;;;;;6.20;2.83;;;16.40;74.10;;;;;;5029689;28;20029;-76
2023/03/30 13:14:32;;;;;;;4.18;2.60;;;16.40;76.40;;;;;;5038333;28;20481;-74
2023/03/30 13:17:13;;;;;;;5.07;3.58;;;16.40;75.40;;;;;;5039904;28;20025;-79
2023/03/30 13:19:47;;;;;;;9.38;3.88;;;16.50;75.70;;;;;;5058506;28;20048;-77
2023/03/30 13:22:14;;;;;;;7.30;2.22;;;16.50;74.90;;;;;;5058857;28;20021;-77